sensor_id;sensor_type;location;lat;lon;timestamp;P1;durP1;ratioP1;P2;durP2;ratioP2
54945;SDS011;40846;44.788;20.486;2023-10-19T00:01:15;19.25;;;8.68;;
54945;SDS011;40846;44.788;20.486;2023-10-19T00:03:41;21.25;;;8.60;;
54945;SDS011;40846;44.788;20.486;2023-10-19T00:06:09;21.55;;;9.23;;
54945;SDS011;40846;44.788;20.486;2023-10-19T00:08:36;12.07;;;7.72;;
54945;SDS011;40846;44.788;20.486;2023-10-19T00:11:12;16.48;;;8.27;;
54945;SDS011;40846;44.788;20.486;2023-10-19T00:13:47;16.48;;;8.75;;
54945;SDS011;40846;44.788;20.486;2023-10-19T00:16:16;16.75;;;8.10;;
54945;SDS011;40846;44.788;20.486;2023-10-19T00:18:43;15.07;;;8.18;;
54945;SDS011;40846;44.788;20.486;2023-10-19T00:21:09;17.70;;;8.30;;
54945;SDS011;40846;44.788;20.486;2023-10-19T00:23:54;16.90;;;8.48;;
54945;SDS011;40846;44.788;20.486;2023-10-19T00:26:29;18.60;;;9.48;;
54945;SDS011;40846;44.788;20.486;2023-10-19T00:28:56;14.90;;;8.20;;
54945;SDS011;40846;44.788;20.486;2023-10-19T00:31:23;18.40;;;7.90;;
54945;SDS011;40846;44.788;20.486;2023-10-19T00:33:49;15.32;;;8.00;;
54945;SDS011;40846;44.788;20.486;2023-10-19T00:36:19;17.13;;;9.15;;
54945;SDS011;40846;44.788;20.486;2023-10-19T00:38:46;19.25;;;8.63;;
54945;SDS011;40846;44.788;20.486;2023-10-19T00:41:22;12.40;;;7.75;;
54945;SDS011;40846;44.788;20.486;2023-10-19T00:43:58;15.57;;;8.18;;
54945;SDS011;40846;44.788;20.486;2023-10-19T00:46:36;13.93;;;8.02;;
54945;SDS011;40846;44.788;20.486;2023-10-19T00:49:05;15.10;;;8.65;;
54945;SDS011;40846;44.788;20.486;2023-10-19T00:54:10;15.95;;;8.27;;
54945;SDS011;40846;44.788;20.486;2023-10-19T00:56:45;15.73;;;8.98;;
54945;SDS011;40846;44.788;20.486;2023-10-19T00:59:17;16.85;;;9.85;;
54945;SDS011;40846;44.788;20.486;2023-10-19T01:01:47;20.67;;;8.63;;
54945;SDS011;40846;44.788;20.486;2023-10-19T01:04:20;19.08;;;9.10;;
54945;SDS011;40846;44.788;20.486;2023-10-19T01:06:55;15.95;;;7.97;;
54945;SDS011;40846;44.788;20.486;2023-10-19T01:09:27;18.08;;;9.27;;
54945;SDS011;40846;44.788;20.486;2023-10-19T01:11:53;17.73;;;7.95;;
54945;SDS011;40846;44.788;20.486;2023-10-19T01:14:19;17.10;;;9.38;;
54945;SDS011;40846;44.788;20.486;2023-10-19T01:16:47;20.80;;;8.77;;
54945;SDS011;40846;44.788;20.486;2023-10-19T01:19:14;14.70;;;8.43;;
54945;SDS011;40846;44.788;20.486;2023-10-19T01:21:44;15.38;;;8.50;;
54945;SDS011;40846;44.788;20.486;2023-10-19T01:26:46;14.82;;;8.48;;
54945;SDS011;40846;44.788;20.486;2023-10-19T01:29:12;18.63;;;8.70;;
54945;SDS011;40846;44.788;20.486;2023-10-19T01:31:42;14.63;;;8.82;;
54945;SDS011;40846;44.788;20.486;2023-10-19T01:34:27;17.60;;;8.02;;
54945;SDS011;40846;44.788;20.486;2023-10-19T01:36:53;18.30;;;8.80;;
54945;SDS011;40846;44.788;20.486;2023-10-19T01:39:20;19.45;;;7.97;;
54945;SDS011;40846;44.788;20.486;2023-10-19T01:41:46;18.50;;;7.85;;
54945;SDS011;40846;44.788;20.486;2023-10-19T01:44:15;17.77;;;7.70;;
54945;SDS011;40846;44.788;20.486;2023-10-19T01:46:42;16.67;;;8.52;;
54945;SDS011;40846;44.788;20.486;2023-10-19T01:49:09;23.23;;;10.00;;
54945;SDS011;40846;44.788;20.486;2023-10-19T01:51:35;18.70;;;8.07;;
54945;SDS011;40846;44.788;20.486;2023-10-19T01:54:03;14.73;;;8.25;;
54945;SDS011;40846;44.788;20.486;2023-10-19T01:56:30;21.20;;;8.65;;
54945;SDS011;40846;44.788;20.486;2023-10-19T01:58:59;15.73;;;8.43;;
54945;SDS011;40846;44.788;20.486;2023-10-19T02:01:26;18.60;;;8.05;;
54945;SDS011;40846;44.788;20.486;2023-10-19T02:03:52;17.30;;;9.10;;
54945;SDS011;40846;44.788;20.486;2023-10-19T02:06:20;14.32;;;7.72;;
54945;SDS011;40846;44.788;20.486;2023-10-19T02:08:50;16.10;;;7.80;;
54945;SDS011;40846;44.788;20.486;2023-10-19T02:11:24;20.55;;;8.50;;
54945;SDS011;40846;44.788;20.486;2023-10-19T02:13:52;12.95;;;8.13;;
54945;SDS011;40846;44.788;20.486;2023-10-19T02:16:19;14.50;;;8.48;;
54945;SDS011;40846;44.788;20.486;2023-10-19T02:18:47;19.60;;;8.57;;
54945;SDS011;40846;44.788;20.486;2023-10-19T02:21:13;17.23;;;7.43;;
54945;SDS011;40846;44.788;20.486;2023-10-19T02:23:40;13.70;;;7.53;;
54945;SDS011;40846;44.788;20.486;2023-10-19T02:26:09;17.58;;;7.18;;
54945;SDS011;40846;44.788;20.486;2023-10-19T02:28:38;12.32;;;7.57;;
54945;SDS011;40846;44.788;20.486;2023-10-19T02:31:05;14.27;;;8.02;;
54945;SDS011;40846;44.788;20.486;2023-10-19T02:33:43;14.15;;;8.13;;
54945;SDS011;40846;44.788;20.486;2023-10-19T02:36:16;12.68;;;7.25;;
54945;SDS011;40846;44.788;20.486;2023-10-19T02:38:45;16.40;;;7.53;;
54945;SDS011;40846;44.788;20.486;2023-10-19T02:41:17;13.02;;;7.80;;
54945;SDS011;40846;44.788;20.486;2023-10-19T02:43:44;17.67;;;7.47;;
54945;SDS011;40846;44.788;20.486;2023-10-19T02:46:27;22.25;;;8.25;;
54945;SDS011;40846;44.788;20.486;2023-10-19T02:48:53;18.45;;;7.03;;
54945;SDS011;40846;44.788;20.486;2023-10-19T02:51:19;14.73;;;8.07;;
54945;SDS011;40846;44.788;20.486;2023-10-19T02:53:46;14.35;;;6.70;;
54945;SDS011;40846;44.788;20.486;2023-10-19T02:56:13;15.52;;;7.47;;
54945;SDS011;40846;44.788;20.486;2023-10-19T02:58:41;17.83;;;6.85;;
54945;SDS011;40846;44.788;20.486;2023-10-19T03:01:12;15.68;;;7.03;;
54945;SDS011;40846;44.788;20.486;2023-10-19T03:03:39;10.18;;;6.22;;
54945;SDS011;40846;44.788;20.486;2023-10-19T03:06:04;11.40;;;7.03;;
54945;SDS011;40846;44.788;20.486;2023-10-19T03:08:31;12.50;;;6.72;;
54945;SDS011;40846;44.788;20.486;2023-10-19T03:10:57;13.30;;;6.82;;
54945;SDS011;40846;44.788;20.486;2023-10-19T03:13:29;18.33;;;7.30;;
54945;SDS011;40846;44.788;20.486;2023-10-19T03:15:57;18.58;;;7.45;;
54945;SDS011;40846;44.788;20.486;2023-10-19T03:18:25;20.52;;;7.68;;
54945;SDS011;40846;44.788;20.486;2023-10-19T03:20:51;12.23;;;6.55;;
54945;SDS011;40846;44.788;20.486;2023-10-19T03:23:18;12.85;;;6.63;;
54945;SDS011;40846;44.788;20.486;2023-10-19T03:25:45;15.88;;;6.93;;
54945;SDS011;40846;44.788;20.486;2023-10-19T03:28:27;14.05;;;6.97;;
54945;SDS011;40846;44.788;20.486;2023-10-19T03:30:54;11.57;;;6.72;;
54945;SDS011;40846;44.788;20.486;2023-10-19T03:33:20;16.80;;;7.13;;
54945;SDS011;40846;44.788;20.486;2023-10-19T03:35:52;18.83;;;7.43;;
54945;SDS011;40846;44.788;20.486;2023-10-19T03:38:19;12.35;;;7.05;;
54945;SDS011;40846;44.788;20.486;2023-10-19T03:40:48;19.80;;;7.65;;
54945;SDS011;40846;44.788;20.486;2023-10-19T03:43:20;16.35;;;7.38;;
54945;SDS011;40846;44.788;20.486;2023-10-19T03:45:52;18.90;;;7.82;;
54945;SDS011;40846;44.788;20.486;2023-10-19T03:48:18;15.07;;;8.43;;
54945;SDS011;40846;44.788;20.486;2023-10-19T03:51:03;16.17;;;7.50;;
54945;SDS011;40846;44.788;20.486;2023-10-19T03:53:30;17.73;;;7.70;;
54945;SDS011;40846;44.788;20.486;2023-10-19T03:55:57;13.80;;;7.40;;
54945;SDS011;40846;44.788;20.486;2023-10-19T03:58:24;15.13;;;8.52;;
54945;SDS011;40846;44.788;20.486;2023-10-19T04:00:54;16.45;;;8.05;;
54945;SDS011;40846;44.788;20.486;2023-10-19T04:03:26;15.05;;;8.27;;
54945;SDS011;40846;44.788;20.486;2023-10-19T04:05:55;16.15;;;8.32;;
54945;SDS011;40846;44.788;20.486;2023-10-19T04:08:26;16.75;;;8.68;;
54945;SDS011;40846;44.788;20.486;2023-10-19T04:10:57;12.95;;;8.50;;
54945;SDS011;40846;44.788;20.486;2023-10-19T04:13:41;14.35;;;7.68;;
54945;SDS011;40846;44.788;20.486;2023-10-19T04:16:10;20.67;;;8.45;;
54945;SDS011;40846;44.788;20.486;2023-10-19T04:18:37;12.57;;;7.55;;
54945;SDS011;40846;44.788;20.486;2023-10-19T04:21:08;16.92;;;8.13;;
54945;SDS011;40846;44.788;20.486;2023-10-19T04:23:35;18.02;;;8.20;;
54945;SDS011;40846;44.788;20.486;2023-10-19T04:26:01;13.40;;;8.35;;
54945;SDS011;40846;44.788;20.486;2023-10-19T04:28:36;19.75;;;10.77;;
54945;SDS011;40846;44.788;20.486;2023-10-19T04:31:31;14.55;;;9.05;;
54945;SDS011;40846;44.788;20.486;2023-10-19T04:33:57;20.05;;;8.55;;
54945;SDS011;40846;44.788;20.486;2023-10-19T04:36:24;19.33;;;9.13;;
54945;SDS011;40846;44.788;20.486;2023-10-19T04:38:50;15.57;;;9.00;;
54945;SDS011;40846;44.788;20.486;2023-10-19T04:41:17;21.33;;;9.07;;
54945;SDS011;40846;44.788;20.486;2023-10-19T04:43:43;19.90;;;9.75;;
54945;SDS011;40846;44.788;20.486;2023-10-19T04:46:15;16.02;;;8.25;;
54945;SDS011;40846;44.788;20.486;2023-10-19T04:48:44;14.27;;;8.25;;
54945;SDS011;40846;44.788;20.486;2023-10-19T04:51:10;14.32;;;9.30;;
54945;SDS011;40846;44.788;20.486;2023-10-19T04:53:36;19.48;;;9.07;;
54945;SDS011;40846;44.788;20.486;2023-10-19T04:56:06;13.73;;;8.82;;
54945;SDS011;40846;44.788;20.486;2023-10-19T04:58:34;21.05;;;9.45;;
54945;SDS011;40846;44.788;20.486;2023-10-19T05:01:00;24.65;;;10.10;;
54945;SDS011;40846;44.788;20.486;2023-10-19T05:03:28;20.90;;;9.50;;
54945;SDS011;40846;44.788;20.486;2023-10-19T05:05:54;20.88;;;9.95;;
54945;SDS011;40846;44.788;20.486;2023-10-19T05:08:22;17.30;;;9.27;;
54945;SDS011;40846;44.788;20.486;2023-10-19T05:10:51;17.77;;;9.23;;
54945;SDS011;40846;44.788;20.486;2023-10-19T05:13:18;19.90;;;10.45;;
54945;SDS011;40846;44.788;20.486;2023-10-19T05:15:44;17.02;;;9.60;;
54945;SDS011;40846;44.788;20.486;2023-10-19T05:18:10;16.25;;;9.02;;
54945;SDS011;40846;44.788;20.486;2023-10-19T05:20:35;14.80;;;8.00;;
54945;SDS011;40846;44.788;20.486;2023-10-19T05:23:05;14.73;;;8.93;;
54945;SDS011;40846;44.788;20.486;2023-10-19T05:25:33;17.20;;;9.32;;
54945;SDS011;40846;44.788;20.486;2023-10-19T05:28:01;15.55;;;8.80;;
54945;SDS011;40846;44.788;20.486;2023-10-19T05:30:30;19.98;;;9.45;;
54945;SDS011;40846;44.788;20.486;2023-10-19T05:32:57;17.33;;;10.50;;
54945;SDS011;40846;44.788;20.486;2023-10-19T05:35:24;24.13;;;12.57;;
54945;SDS011;40846;44.788;20.486;2023-10-19T05:37:54;21.65;;;12.18;;
54945;SDS011;40846;44.788;20.486;2023-10-19T05:40:24;19.73;;;11.20;;
54945;SDS011;40846;44.788;20.486;2023-10-19T05:42:55;20.02;;;10.52;;
54945;SDS011;40846;44.788;20.486;2023-10-19T05:45:26;18.15;;;9.70;;
54945;SDS011;40846;44.788;20.486;2023-10-19T05:47:55;19.65;;;9.10;;
54945;SDS011;40846;44.788;20.486;2023-10-19T05:50:33;11.40;;;7.75;;
54945;SDS011;40846;44.788;20.486;2023-10-19T05:52:59;14.02;;;8.00;;
54945;SDS011;40846;44.788;20.486;2023-10-19T05:55:25;17.27;;;8.27;;
54945;SDS011;40846;44.788;20.486;2023-10-19T05:57:51;29.70;;;20.08;;
54945;SDS011;40846;44.788;20.486;2023-10-19T06:00:17;30.98;;;22.95;;
54945;SDS011;40846;44.788;20.486;2023-10-19T06:02:46;33.08;;;21.63;;
54945;SDS011;40846;44.788;20.486;2023-10-19T06:05:14;23.58;;;16.05;;
54945;SDS011;40846;44.788;20.486;2023-10-19T06:07:41;25.00;;;13.18;;
54945;SDS011;40846;44.788;20.486;2023-10-19T06:13:30;18.20;;;9.15;;
54945;SDS011;40846;44.788;20.486;2023-10-19T06:15:57;13.93;;;9.23;;
54945;SDS011;40846;44.788;20.486;2023-10-19T06:18:23;15.65;;;9.10;;
54945;SDS011;40846;44.788;20.486;2023-10-19T06:20:49;13.07;;;8.38;;
54945;SDS011;40846;44.788;20.486;2023-10-19T06:23:16;12.20;;;7.88;;
54945;SDS011;40846;44.788;20.486;2023-10-19T06:25:43;15.15;;;8.18;;
54945;SDS011;40846;44.788;20.486;2023-10-19T06:28:09;15.35;;;8.32;;
54945;SDS011;40846;44.788;20.486;2023-10-19T06:30:36;14.23;;;8.20;;
54945;SDS011;40846;44.788;20.486;2023-10-19T06:33:02;18.15;;;8.23;;
54945;SDS011;40846;44.788;20.486;2023-10-19T06:35:30;13.77;;;8.38;;
54945;SDS011;40846;44.788;20.486;2023-10-19T06:38:01;16.25;;;7.55;;
54945;SDS011;40846;44.788;20.486;2023-10-19T06:43:56;13.55;;;8.50;;
54945;SDS011;40846;44.788;20.486;2023-10-19T06:46:28;15.63;;;8.32;;
54945;SDS011;40846;44.788;20.486;2023-10-19T06:48:53;18.15;;;9.70;;
54945;SDS011;40846;44.788;20.486;2023-10-19T06:51:22;15.15;;;7.63;;
54945;SDS011;40846;44.788;20.486;2023-10-19T06:53:48;14.38;;;7.80;;
54945;SDS011;40846;44.788;20.486;2023-10-19T06:56:14;18.40;;;7.90;;
54945;SDS011;40846;44.788;20.486;2023-10-19T06:58:40;13.93;;;7.90;;
54945;SDS011;40846;44.788;20.486;2023-10-19T07:01:09;9.82;;;6.75;;
54945;SDS011;40846;44.788;20.486;2023-10-19T07:03:41;14.73;;;7.57;;
54945;SDS011;40846;44.788;20.486;2023-10-19T07:06:07;24.80;;;7.90;;
54945;SDS011;40846;44.788;20.486;2023-10-19T07:08:41;12.70;;;7.50;;
54945;SDS011;40846;44.788;20.486;2023-10-19T07:11:07;12.93;;;8.05;;
54945;SDS011;40846;44.788;20.486;2023-10-19T07:13:34;17.10;;;7.90;;
54945;SDS011;40846;44.788;20.486;2023-10-19T07:16:00;12.82;;;7.15;;
54945;SDS011;40846;44.788;20.486;2023-10-19T07:18:26;11.98;;;8.07;;
54945;SDS011;40846;44.788;20.486;2023-10-19T07:20:53;13.43;;;7.28;;
54945;SDS011;40846;44.788;20.486;2023-10-19T07:23:26;19.30;;;9.40;;
54945;SDS011;40846;44.788;20.486;2023-10-19T07:29:15;17.30;;;9.40;;
54945;SDS011;40846;44.788;20.486;2023-10-19T07:31:42;17.23;;;9.18;;
54945;SDS011;40846;44.788;20.486;2023-10-19T07:34:07;15.20;;;8.73;;
54945;SDS011;40846;44.788;20.486;2023-10-19T07:36:37;19.17;;;8.50;;
54945;SDS011;40846;44.788;20.486;2023-10-19T07:39:03;16.05;;;8.52;;
54945;SDS011;40846;44.788;20.486;2023-10-19T07:41:29;18.85;;;8.50;;
54945;SDS011;40846;44.788;20.486;2023-10-19T07:44:01;21.15;;;8.55;;
54945;SDS011;40846;44.788;20.486;2023-10-19T07:46:30;17.00;;;7.97;;
54945;SDS011;40846;44.788;20.486;2023-10-19T07:48:56;15.77;;;7.90;;
54945;SDS011;40846;44.788;20.486;2023-10-19T07:51:24;13.98;;;8.13;;
54945;SDS011;40846;44.788;20.486;2023-10-19T07:53:50;14.05;;;7.70;;
54945;SDS011;40846;44.788;20.486;2023-10-19T07:59:38;23.88;;;7.50;;
54945;SDS011;40846;44.788;20.486;2023-10-19T08:02:05;13.75;;;7.20;;
54945;SDS011;40846;44.788;20.486;2023-10-19T08:04:30;13.38;;;7.05;;
54945;SDS011;40846;44.788;20.486;2023-10-19T08:06:57;17.45;;;7.20;;
54945;SDS011;40846;44.788;20.486;2023-10-19T08:09:23;10.05;;;7.10;;
54945;SDS011;40846;44.788;20.486;2023-10-19T08:11:51;13.23;;;6.85;;
54945;SDS011;40846;44.788;20.486;2023-10-19T08:14:26;11.73;;;6.22;;
54945;SDS011;40846;44.788;20.486;2023-10-19T08:16:52;12.13;;;6.20;;
54945;SDS011;40846;44.788;20.486;2023-10-19T08:19:19;11.32;;;6.53;;
54945;SDS011;40846;44.788;20.486;2023-10-19T08:21:45;11.45;;;5.80;;
54945;SDS011;40846;44.788;20.486;2023-10-19T08:24:12;15.27;;;5.88;;
54945;SDS011;40846;44.788;20.486;2023-10-19T08:26:43;12.32;;;6.00;;
54945;SDS011;40846;44.788;20.486;2023-10-19T08:29:12;18.63;;;6.10;;
54945;SDS011;40846;44.788;20.486;2023-10-19T08:31:39;14.30;;;5.38;;
54945;SDS011;40846;44.788;20.486;2023-10-19T08:34:06;12.23;;;6.18;;
54945;SDS011;40846;44.788;20.486;2023-10-19T08:36:35;11.93;;;5.13;;
54945;SDS011;40846;44.788;20.486;2023-10-19T08:39:03;10.20;;;5.55;;
54945;SDS011;40846;44.788;20.486;2023-10-19T08:41:31;10.32;;;4.95;;
54945;SDS011;40846;44.788;20.486;2023-10-19T08:43:59;9.43;;;5.43;;
54945;SDS011;40846;44.788;20.486;2023-10-19T08:46:26;9.07;;;5.43;;
54945;SDS011;40846;44.788;20.486;2023-10-19T08:48:55;16.85;;;4.88;;
54945;SDS011;40846;44.788;20.486;2023-10-19T08:51:24;8.27;;;5.35;;
54945;SDS011;40846;44.788;20.486;2023-10-19T08:56:38;10.70;;;5.00;;
54945;SDS011;40846;44.788;20.486;2023-10-19T08:59:06;10.57;;;4.60;;
54945;SDS011;40846;44.788;20.486;2023-10-19T09:01:32;9.82;;;4.68;;
54945;SDS011;40846;44.788;20.486;2023-10-19T09:04:00;13.20;;;5.70;;
54945;SDS011;40846;44.788;20.486;2023-10-19T09:06:26;9.38;;;6.00;;
54945;SDS011;40846;44.788;20.486;2023-10-19T09:08:57;7.90;;;5.45;;
54945;SDS011;40846;44.788;20.486;2023-10-19T09:11:23;9.07;;;4.85;;
54945;SDS011;40846;44.788;20.486;2023-10-19T09:13:50;9.10;;;5.03;;
54945;SDS011;40846;44.788;20.486;2023-10-19T09:16:18;8.60;;;6.03;;
54945;SDS011;40846;44.788;20.486;2023-10-19T09:18:45;19.85;;;6.15;;
54945;SDS011;40846;44.788;20.486;2023-10-19T09:21:15;12.15;;;5.05;;
54945;SDS011;40846;44.788;20.486;2023-10-19T09:23:57;12.18;;;5.13;;
54945;SDS011;40846;44.788;20.486;2023-10-19T09:26:23;10.60;;;5.97;;
54945;SDS011;40846;44.788;20.486;2023-10-19T09:28:50;8.68;;;5.40;;
54945;SDS011;40846;44.788;20.486;2023-10-19T09:31:17;8.50;;;4.53;;
54945;SDS011;40846;44.788;20.486;2023-10-19T09:33:44;10.40;;;5.38;;
54945;SDS011;40846;44.788;20.486;2023-10-19T09:36:10;10.50;;;4.63;;
54945;SDS011;40846;44.788;20.486;2023-10-19T09:38:50;10.52;;;4.35;;
54945;SDS011;40846;44.788;20.486;2023-10-19T09:41:22;9.27;;;4.63;;
54945;SDS011;40846;44.788;20.486;2023-10-19T09:43:53;6.30;;;4.18;;
54945;SDS011;40846;44.788;20.486;2023-10-19T09:46:29;9.50;;;4.85;;
54945;SDS011;40846;44.788;20.486;2023-10-19T09:48:57;11.48;;;4.43;;
54945;SDS011;40846;44.788;20.486;2023-10-19T09:51:24;11.70;;;4.70;;
54945;SDS011;40846;44.788;20.486;2023-10-19T09:53:56;9.70;;;5.07;;
54945;SDS011;40846;44.788;20.486;2023-10-19T09:56:34;13.07;;;4.07;;
54945;SDS011;40846;44.788;20.486;2023-10-19T09:59:05;13.30;;;4.22;;
54945;SDS011;40846;44.788;20.486;2023-10-19T10:02:21;9.60;;;5.03;;
54945;SDS011;40846;44.788;20.486;2023-10-19T10:04:30;10.40;;;4.63;;
54945;SDS011;40846;44.788;20.486;2023-10-19T10:06:57;10.80;;;4.78;;
54945;SDS011;40846;44.788;20.486;2023-10-19T10:09:29;9.13;;;4.85;;
54945;SDS011;40846;44.788;20.486;2023-10-19T10:11:55;8.15;;;4.70;;
54945;SDS011;40846;44.788;20.486;2023-10-19T10:14:25;11.68;;;4.70;;
54945;SDS011;40846;44.788;20.486;2023-10-19T10:17:01;8.95;;;4.38;;
54945;SDS011;40846;44.788;20.486;2023-10-19T10:19:27;12.43;;;5.10;;
54945;SDS011;40846;44.788;20.486;2023-10-19T10:22:03;11.95;;;4.35;;
54945;SDS011;40846;44.788;20.486;2023-10-19T10:24:31;8.85;;;4.68;;
54945;SDS011;40846;44.788;20.486;2023-10-19T10:26:58;16.40;;;5.10;;
54945;SDS011;40846;44.788;20.486;2023-10-19T10:29:25;6.85;;;3.95;;
54945;SDS011;40846;44.788;20.486;2023-10-19T10:31:53;11.57;;;4.43;;
54945;SDS011;40846;44.788;20.486;2023-10-19T10:37:06;6.22;;;4.32;;
54945;SDS011;40846;44.788;20.486;2023-10-19T10:39:33;6.28;;;3.60;;
54945;SDS011;40846;44.788;20.486;2023-10-19T10:42:05;8.07;;;4.07;;
54945;SDS011;40846;44.788;20.486;2023-10-19T10:44:42;10.90;;;4.85;;
54945;SDS011;40846;44.788;20.486;2023-10-19T10:47:19;9.15;;;4.25;;
54945;SDS011;40846;44.788;20.486;2023-10-19T10:49:50;9.05;;;3.63;;
54945;SDS011;40846;44.788;20.486;2023-10-19T10:52:27;7.37;;;4.70;;
54945;SDS011;40846;44.788;20.486;2023-10-19T10:54:59;10.88;;;5.00;;
54945;SDS011;40846;44.788;20.486;2023-10-19T10:57:32;9.40;;;4.68;;
54945;SDS011;40846;44.788;20.486;2023-10-19T11:00:05;16.08;;;4.47;;
54945;SDS011;40846;44.788;20.486;2023-10-19T11:02:36;14.73;;;5.03;;
54945;SDS011;40846;44.788;20.486;2023-10-19T11:05:07;8.95;;;4.80;;
54945;SDS011;40846;44.788;20.486;2023-10-19T11:07:38;10.07;;;4.45;;
54945;SDS011;40846;44.788;20.486;2023-10-19T11:10:05;9.40;;;4.15;;
54945;SDS011;40846;44.788;20.486;2023-10-19T11:12:31;14.57;;;5.43;;
54945;SDS011;40846;44.788;20.486;2023-10-19T11:14:58;15.88;;;5.40;;
54945;SDS011;40846;44.788;20.486;2023-10-19T11:17:25;7.88;;;4.57;;
54945;SDS011;40846;44.788;20.486;2023-10-19T11:19:58;13.48;;;5.63;;
54945;SDS011;40846;44.788;20.486;2023-10-19T11:22:27;23.58;;;7.00;;
54945;SDS011;40846;44.788;20.486;2023-10-19T11:24:53;13.07;;;5.93;;
54945;SDS011;40846;44.788;20.486;2023-10-19T11:27:25;6.97;;;4.95;;
54945;SDS011;40846;44.788;20.486;2023-10-19T11:29:57;15.88;;;6.00;;
54945;SDS011;40846;44.788;20.486;2023-10-19T11:32:35;12.10;;;5.95;;
54945;SDS011;40846;44.788;20.486;2023-10-19T11:35:03;7.45;;;4.30;;
54945;SDS011;40846;44.788;20.486;2023-10-19T11:37:29;12.63;;;5.10;;
54945;SDS011;40846;44.788;20.486;2023-10-19T11:40:07;11.20;;;5.18;;
54945;SDS011;40846;44.788;20.486;2023-10-19T11:42:33;11.82;;;4.22;;
54945;SDS011;40846;44.788;20.486;2023-10-19T11:44:59;10.15;;;4.85;;
54945;SDS011;40846;44.788;20.486;2023-10-19T11:47:25;8.50;;;5.05;;
54945;SDS011;40846;44.788;20.486;2023-10-19T11:49:51;10.90;;;5.63;;
54945;SDS011;40846;44.788;20.486;2023-10-19T11:52:21;11.02;;;5.20;;
54945;SDS011;40846;44.788;20.486;2023-10-19T11:54:48;10.52;;;5.15;;
54945;SDS011;40846;44.788;20.486;2023-10-19T11:57:14;12.38;;;5.03;;
54945;SDS011;40846;44.788;20.486;2023-10-19T11:59:40;13.10;;;5.32;;
54945;SDS011;40846;44.788;20.486;2023-10-19T12:02:06;13.80;;;4.82;;
54945;SDS011;40846;44.788;20.486;2023-10-19T12:04:32;10.30;;;5.53;;
54945;SDS011;40846;44.788;20.486;2023-10-19T12:07:01;15.05;;;4.90;;
54945;SDS011;40846;44.788;20.486;2023-10-19T12:09:28;7.82;;;4.90;;
54945;SDS011;40846;44.788;20.486;2023-10-19T12:11:55;10.25;;;5.72;;
54945;SDS011;40846;44.788;20.486;2023-10-19T12:14:23;10.40;;;5.00;;
54945;SDS011;40846;44.788;20.486;2023-10-19T12:16:49;16.95;;;6.18;;
54945;SDS011;40846;44.788;20.486;2023-10-19T12:19:15;14.10;;;5.85;;
54945;SDS011;40846;44.788;20.486;2023-10-19T12:21:44;17.35;;;5.50;;
54945;SDS011;40846;44.788;20.486;2023-10-19T12:24:09;12.23;;;5.78;;
54945;SDS011;40846;44.788;20.486;2023-10-19T12:26:36;17.02;;;5.90;;
54945;SDS011;40846;44.788;20.486;2023-10-19T12:29:03;9.10;;;5.35;;
54945;SDS011;40846;44.788;20.486;2023-10-19T12:31:34;10.80;;;5.20;;
54945;SDS011;40846;44.788;20.486;2023-10-19T12:34:00;15.07;;;5.90;;
54945;SDS011;40846;44.788;20.486;2023-10-19T12:36:26;9.65;;;5.22;;
54945;SDS011;40846;44.788;20.486;2023-10-19T12:38:53;12.90;;;5.63;;
54945;SDS011;40846;44.788;20.486;2023-10-19T12:41:22;9.75;;;5.00;;
54945;SDS011;40846;44.788;20.486;2023-10-19T12:43:49;11.63;;;4.95;;
54945;SDS011;40846;44.788;20.486;2023-10-19T12:46:22;8.82;;;4.80;;
54945;SDS011;40846;44.788;20.486;2023-10-19T12:49:06;12.25;;;5.05;;
54945;SDS011;40846;44.788;20.486;2023-10-19T12:51:41;11.73;;;4.70;;
54945;SDS011;40846;44.788;20.486;2023-10-19T12:54:07;9.75;;;4.95;;
54945;SDS011;40846;44.788;20.486;2023-10-19T12:56:35;11.48;;;4.82;;
54945;SDS011;40846;44.788;20.486;2023-10-19T12:59:01;15.45;;;5.57;;
54945;SDS011;40846;44.788;20.486;2023-10-19T13:01:27;13.90;;;5.38;;
54945;SDS011;40846;44.788;20.486;2023-10-19T13:03:53;9.93;;;4.82;;
54945;SDS011;40846;44.788;20.486;2023-10-19T13:06:19;12.98;;;5.40;;
54945;SDS011;40846;44.788;20.486;2023-10-19T13:08:45;10.73;;;6.30;;
54945;SDS011;40846;44.788;20.486;2023-10-19T13:11:12;9.93;;;5.22;;
54945;SDS011;40846;44.788;20.486;2023-10-19T13:13:40;13.13;;;5.15;;
54945;SDS011;40846;44.788;20.486;2023-10-19T13:16:06;11.35;;;4.90;;
54945;SDS011;40846;44.788;20.486;2023-10-19T13:18:34;11.90;;;5.95;;
54945;SDS011;40846;44.788;20.486;2023-10-19T13:21:00;19.95;;;6.25;;
54945;SDS011;40846;44.788;20.486;2023-10-19T13:23:33;14.65;;;5.47;;
54945;SDS011;40846;44.788;20.486;2023-10-19T13:25:59;17.23;;;6.63;;
54945;SDS011;40846;44.788;20.486;2023-10-19T13:28:40;14.50;;;6.30;;
54945;SDS011;40846;44.788;20.486;2023-10-19T13:31:07;11.52;;;6.63;;
54945;SDS011;40846;44.788;20.486;2023-10-19T13:33:38;14.25;;;7.22;;
54945;SDS011;40846;44.788;20.486;2023-10-19T13:36:06;21.95;;;8.38;;
54945;SDS011;40846;44.788;20.486;2023-10-19T13:38:32;19.38;;;7.13;;
54945;SDS011;40846;44.788;20.486;2023-10-19T13:40:58;13.52;;;6.20;;
54945;SDS011;40846;44.788;20.486;2023-10-19T13:43:27;12.43;;;6.72;;
54945;SDS011;40846;44.788;20.486;2023-10-19T13:45:53;17.95;;;6.80;;
54945;SDS011;40846;44.788;20.486;2023-10-19T13:48:19;15.98;;;6.85;;
54945;SDS011;40846;44.788;20.486;2023-10-19T13:50:46;11.48;;;6.75;;
54945;SDS011;40846;44.788;20.486;2023-10-19T13:53:18;22.65;;;6.00;;
54945;SDS011;40846;44.788;20.486;2023-10-19T13:55:44;21.00;;;7.15;;
54945;SDS011;40846;44.788;20.486;2023-10-19T13:58:11;11.50;;;6.53;;
54945;SDS011;40846;44.788;20.486;2023-10-19T14:00:40;16.75;;;6.93;;
54945;SDS011;40846;44.788;20.486;2023-10-19T14:03:08;7.88;;;5.10;;
54945;SDS011;40846;44.788;20.486;2023-10-19T14:05:41;8.75;;;5.47;;
54945;SDS011;40846;44.788;20.486;2023-10-19T14:08:12;15.68;;;6.55;;
54945;SDS011;40846;44.788;20.486;2023-10-19T14:10:39;11.95;;;6.80;;
54945;SDS011;40846;44.788;20.486;2023-10-19T14:13:08;19.00;;;6.35;;
54945;SDS011;40846;44.788;20.486;2023-10-19T14:15:36;14.25;;;6.78;;
54945;SDS011;40846;44.788;20.486;2023-10-19T14:18:03;10.73;;;6.40;;
54945;SDS011;40846;44.788;20.486;2023-10-19T14:20:30;13.13;;;6.47;;
54945;SDS011;40846;44.788;20.486;2023-10-19T14:22:57;19.88;;;7.55;;
54945;SDS011;40846;44.788;20.486;2023-10-19T14:25:23;15.98;;;6.82;;
54945;SDS011;40846;44.788;20.486;2023-10-19T14:27:49;13.82;;;7.85;;
54945;SDS011;40846;44.788;20.486;2023-10-19T14:30:18;15.90;;;7.72;;
54945;SDS011;40846;44.788;20.486;2023-10-19T14:32:48;14.70;;;7.40;;
54945;SDS011;40846;44.788;20.486;2023-10-19T14:35:19;20.25;;;8.00;;
54945;SDS011;40846;44.788;20.486;2023-10-19T14:37:46;17.42;;;7.50;;
54945;SDS011;40846;44.788;20.486;2023-10-19T14:40:17;15.52;;;7.65;;
54945;SDS011;40846;44.788;20.486;2023-10-19T14:42:46;13.48;;;7.15;;
54945;SDS011;40846;44.788;20.486;2023-10-19T14:45:14;23.15;;;7.65;;
54945;SDS011;40846;44.788;20.486;2023-10-19T14:47:49;13.00;;;7.18;;
54945;SDS011;40846;44.788;20.486;2023-10-19T14:50:25;13.48;;;6.95;;
54945;SDS011;40846;44.788;20.486;2023-10-19T14:52:52;17.27;;;7.85;;
54945;SDS011;40846;44.788;20.486;2023-10-19T14:55:19;16.48;;;7.60;;
54945;SDS011;40846;44.788;20.486;2023-10-19T14:57:46;16.40;;;6.40;;